EWG82N EDDG-LEPA
Flight info
| Callsign | EWG82N |
|---|---|
| Flight time | 2h 2m |
| Altitude | 36000 |
| Route | DOMEG1W DOMEG Z841 GMH Q603 TESGA L603 BOMBI DCT GIGET DCT ABUKA DCT KRH DCT NATOR DCT LUTIX DCT BENOT DCT NEMOS DCT GEVEA DCT INCUS DCT BALSI DCT RETNO DCT TUPOX DCT MTG DCT DIVKO DCT VATIR N852 VERSO L129 LUNIK |
| Aircraft | A320/M-SDE3FGHIRWY/LB1 |
Departure
| Time | 2026-04-20 17:29 |
|---|---|
| Airport | Münster Osnabrück Airport (EDDG) |
Arrival
| Time | 2026-04-20 19:31 |
|---|---|
| Airport | Palma de Mallorca Airport (LEPA) |
| Time | Latitude | Longitude | Altitude | Speed | Heading |
|---|---|---|---|---|---|
| 2026-04-20 16:56 | 52.13154 | 7.69300 | 168 ft | 0 kts | 196° |
| 2026-04-20 17:25 | 52.13153 | 7.69297 | 167 ft | 1 kts | 210° |
| 2026-04-20 17:25 | 52.13151 | 7.69274 | 167 ft | 3 kts | 272° |
| 2026-04-20 17:25 | 52.13167 | 7.69261 | 167 ft | 3 kts | 354° |
| 2026-04-20 17:25 | 52.13203 | 7.69258 | 167 ft | 7 kts | 358° |
| 2026-04-20 17:26 | 52.13264 | 7.69221 | 167 ft | 10 kts | 336° |
| 2026-04-20 17:26 | 52.13334 | 7.69188 | 167 ft | 11 kts | 9° |
| 2026-04-20 17:26 | 52.13402 | 7.69236 | 167 ft | 11 kts | 353° |
| 2026-04-20 17:26 | 52.13463 | 7.69301 | 167 ft | 12 kts | 66° |
| 2026-04-20 17:27 | 52.13491 | 7.69433 | 167 ft | 13 kts | 71° |
| 2026-04-20 17:27 | 52.13520 | 7.69576 | 167 ft | 14 kts | 71° |
| 2026-04-20 17:27 | 52.13552 | 7.69730 | 167 ft | 15 kts | 70° |
| 2026-04-20 17:27 | 52.13587 | 7.69893 | 167 ft | 15 kts | 71° |
| 2026-04-20 17:28 | 52.13645 | 7.70022 | 167 ft | 15 kts | 28° |
| 2026-04-20 17:28 | 52.13744 | 7.70008 | 167 ft | 15 kts | 335° |
| 2026-04-20 17:28 | 52.13758 | 7.69869 | 167 ft | 12 kts | 250° |
| 2026-04-20 17:28 | 52.13714 | 7.69664 | 168 ft | 41 kts | 251° |
| 2026-04-20 17:29 | 52.13541 | 7.68842 | 167 ft | 111 kts | 251° |
| 2026-04-20 17:29 | 52.13236 | 7.67369 | 285 ft | 151 kts | 254° |
| 2026-04-20 17:29 | 52.12922 | 7.65832 | 1018 ft | 144 kts | 254° |
| 2026-04-20 17:29 | 52.12587 | 7.64260 | 1544 ft | 151 kts | 252° |
| 2026-04-20 17:30 | 52.12215 | 7.62554 | 1787 ft | 170 kts | 252° |
| 2026-04-20 17:30 | 52.11798 | 7.60620 | 1969 ft | 194 kts | 252° |
| 2026-04-20 17:30 | 52.11337 | 7.58462 | 2274 ft | 212 kts | 252° |
| 2026-04-20 17:30 | 52.10828 | 7.56088 | 2618 ft | 231 kts | 251° |
| 2026-04-20 17:31 | 52.10023 | 7.53694 | 2930 ft | 254 kts | 224° |
| 2026-04-20 17:31 | 52.08457 | 7.52294 | 3432 ft | 265 kts | 187° |
| 2026-04-20 17:31 | 52.06603 | 7.52053 | 4164 ft | 270 kts | 179° |
| 2026-04-20 17:31 | 52.04726 | 7.51816 | 5031 ft | 273 kts | 181° |
| 2026-04-20 17:32 | 52.02823 | 7.51491 | 5855 ft | 277 kts | 185° |
| 2026-04-20 17:32 | 52.00898 | 7.51153 | 6687 ft | 280 kts | 181° |
| 2026-04-20 17:32 | 51.98950 | 7.51326 | 7461 ft | 281 kts | 169° |
| 2026-04-20 17:32 | 51.97008 | 7.51821 | 8302 ft | 283 kts | 168° |
| 2026-04-20 17:33 | 51.95060 | 7.52336 | 9173 ft | 284 kts | 168° |
| 2026-04-20 17:33 | 51.93107 | 7.52861 | 10027 ft | 285 kts | 167° |
| 2026-04-20 17:33 | 51.91151 | 7.53390 | 10589 ft | 296 kts | 167° |
| 2026-04-20 17:33 | 51.89042 | 7.53962 | 10774 ft | 319 kts | 167° |
| 2026-04-20 17:34 | 51.86784 | 7.54570 | 11027 ft | 337 kts | 168° |
| 2026-04-20 17:34 | 51.84440 | 7.55191 | 11606 ft | 344 kts | 168° |
| 2026-04-20 17:34 | 51.82064 | 7.55816 | 12268 ft | 348 kts | 168° |
| 2026-04-20 17:34 | 51.79659 | 7.56444 | 12950 ft | 352 kts | 168° |
| 2026-04-20 17:35 | 51.77225 | 7.57077 | 13590 ft | 356 kts | 168° |
| 2026-04-20 17:35 | 51.74769 | 7.57714 | 14234 ft | 359 kts | 168° |
| 2026-04-20 17:35 | 51.72293 | 7.58358 | 14837 ft | 362 kts | 168° |
| 2026-04-20 17:35 | 51.69849 | 7.59321 | 15436 ft | 362 kts | 159° |
| 2026-04-20 17:36 | 51.67471 | 7.60683 | 16057 ft | 364 kts | 158° |
| 2026-04-20 17:36 | 51.65081 | 7.62059 | 16670 ft | 366 kts | 158° |
| 2026-04-20 17:36 | 51.62678 | 7.63441 | 17275 ft | 368 kts | 158° |
| 2026-04-20 17:36 | 51.60255 | 7.64827 | 17875 ft | 370 kts | 158° |
| 2026-04-20 17:37 | 51.57815 | 7.66213 | 18469 ft | 373 kts | 158° |
| 2026-04-20 17:37 | 51.55389 | 7.67589 | 18985 ft | 375 kts | 158° |
| 2026-04-20 17:37 | 51.52924 | 7.68989 | 19511 ft | 377 kts | 158° |
| 2026-04-20 17:37 | 51.50441 | 7.70398 | 20040 ft | 379 kts | 158° |
| 2026-04-20 17:38 | 51.47944 | 7.71814 | 20559 ft | 382 kts | 158° |
| 2026-04-20 17:38 | 51.45427 | 7.73241 | 21059 ft | 385 kts | 158° |
| 2026-04-20 17:38 | 51.42895 | 7.74674 | 21562 ft | 387 kts | 158° |
| 2026-04-20 17:38 | 51.40349 | 7.76114 | 22057 ft | 389 kts | 158° |
| 2026-04-20 17:39 | 51.37789 | 7.77561 | 22543 ft | 391 kts | 158° |
| 2026-04-20 17:39 | 51.35216 | 7.79012 | 23017 ft | 393 kts | 158° |
| 2026-04-20 17:39 | 51.32619 | 7.80469 | 23471 ft | 396 kts | 158° |
| 2026-04-20 17:39 | 51.30016 | 7.81930 | 23914 ft | 397 kts | 158° |
| 2026-04-20 17:40 | 51.27407 | 7.83395 | 24315 ft | 398 kts | 159° |
| 2026-04-20 17:40 | 51.24778 | 7.84875 | 24643 ft | 401 kts | 159° |
| 2026-04-20 17:40 | 51.22129 | 7.86365 | 24932 ft | 405 kts | 159° |
| 2026-04-20 17:40 | 51.19467 | 7.87861 | 25217 ft | 408 kts | 159° |
| 2026-04-20 17:41 | 51.16839 | 7.89600 | 25521 ft | 410 kts | 152° |
| 2026-04-20 17:41 | 51.14382 | 7.91912 | 25801 ft | 412 kts | 146° |
| 2026-04-20 17:41 | 51.11959 | 7.94384 | 26082 ft | 415 kts | 146° |
| 2026-04-20 17:41 | 51.09522 | 7.96869 | 26393 ft | 417 kts | 146° |
| 2026-04-20 17:42 | 51.07070 | 7.99365 | 26709 ft | 420 kts | 146° |
| 2026-04-20 17:42 | 51.04597 | 8.01875 | 26919 ft | 425 kts | 147° |
| 2026-04-20 17:42 | 51.02084 | 8.04427 | 27055 ft | 431 kts | 147° |
| 2026-04-20 17:42 | 50.99581 | 8.06967 | 27291 ft | 434 kts | 147° |
| 2026-04-20 17:43 | 50.97029 | 8.09550 | 27568 ft | 436 kts | 148° |
| 2026-04-20 17:43 | 50.94458 | 8.12147 | 27795 ft | 440 kts | 148° |
| 2026-04-20 17:43 | 50.91862 | 8.14765 | 28014 ft | 444 kts | 148° |
| 2026-04-20 17:43 | 50.89247 | 8.17397 | 28234 ft | 447 kts | 148° |
| 2026-04-20 17:44 | 50.86607 | 8.20048 | 28439 ft | 451 kts | 148° |
| 2026-04-20 17:44 | 50.83934 | 8.22676 | 28654 ft | 453 kts | 152° |
| 2026-04-20 17:44 | 50.81104 | 8.24890 | 28869 ft | 455 kts | 155° |
| 2026-04-20 17:44 | 50.78233 | 8.27048 | 29077 ft | 458 kts | 156° |
| 2026-04-20 17:45 | 50.75339 | 8.29195 | 29305 ft | 460 kts | 156° |
| 2026-04-20 17:45 | 50.72429 | 8.31340 | 29556 ft | 461 kts | 156° |
| 2026-04-20 17:45 | 50.69516 | 8.33483 | 29801 ft | 463 kts | 156° |
| 2026-04-20 17:45 | 50.66594 | 8.35635 | 30015 ft | 465 kts | 156° |
| 2026-04-20 17:46 | 50.63659 | 8.37804 | 30238 ft | 466 kts | 156° |
| 2026-04-20 17:46 | 50.60720 | 8.39974 | 30480 ft | 466 kts | 156° |
| 2026-04-20 17:46 | 50.57783 | 8.42141 | 30721 ft | 466 kts | 156° |
| 2026-04-20 17:46 | 50.54845 | 8.44300 | 30916 ft | 467 kts | 156° |
| 2026-04-20 17:47 | 50.51890 | 8.46462 | 31049 ft | 470 kts | 157° |
| 2026-04-20 17:47 | 50.48923 | 8.48632 | 31252 ft | 471 kts | 157° |
| 2026-04-20 17:47 | 50.45953 | 8.50807 | 31454 ft | 472 kts | 157° |
| 2026-04-20 17:47 | 50.42972 | 8.52993 | 31678 ft | 472 kts | 157° |
| 2026-04-20 17:48 | 50.39992 | 8.55175 | 31898 ft | 473 kts | 157° |
| 2026-04-20 17:48 | 50.37010 | 8.57350 | 32119 ft | 473 kts | 157° |
| 2026-04-20 17:48 | 50.34025 | 8.59524 | 32341 ft | 474 kts | 157° |
| 2026-04-20 17:48 | 50.31075 | 8.61673 | 32497 ft | 475 kts | 158° |
| 2026-04-20 17:49 | 50.28066 | 8.63863 | 32639 ft | 478 kts | 158° |
| 2026-04-20 17:49 | 50.25009 | 8.66079 | 32819 ft | 479 kts | 158° |
| 2026-04-20 17:49 | 50.22018 | 8.68241 | 33032 ft | 480 kts | 158° |
| 2026-04-20 17:49 | 50.18979 | 8.70435 | 33249 ft | 480 kts | 158° |
| 2026-04-20 17:50 | 50.15948 | 8.72619 | 33474 ft | 480 kts | 158° |
| 2026-04-20 17:50 | 50.12917 | 8.74799 | 33697 ft | 480 kts | 158° |
| 2026-04-20 17:50 | 50.09867 | 8.76933 | 33917 ft | 479 kts | 162° |
| 2026-04-20 17:50 | 50.06694 | 8.78426 | 34094 ft | 475 kts | 173° |
| 2026-04-20 17:51 | 50.03442 | 8.79083 | 34238 ft | 469 kts | 183° |
| 2026-04-20 17:51 | 50.00204 | 8.78906 | 34398 ft | 463 kts | 193° |
| 2026-04-20 17:51 | 49.97014 | 8.78229 | 34575 ft | 463 kts | 193° |
| 2026-04-20 17:51 | 49.93827 | 8.77551 | 34756 ft | 463 kts | 193° |
| 2026-04-20 17:52 | 49.90628 | 8.76883 | 34926 ft | 463 kts | 193° |
| 2026-04-20 17:52 | 49.87429 | 8.76221 | 35114 ft | 463 kts | 192° |
| 2026-04-20 17:52 | 49.84274 | 8.75572 | 35253 ft | 463 kts | 193° |
| 2026-04-20 17:52 | 49.81081 | 8.74919 | 35423 ft | 463 kts | 193° |
| 2026-04-20 17:53 | 49.77887 | 8.74264 | 35588 ft | 464 kts | 193° |
| 2026-04-20 17:53 | 49.74685 | 8.73608 | 35755 ft | 464 kts | 193° |
| 2026-04-20 17:53 | 49.71488 | 8.72951 | 35920 ft | 464 kts | 193° |
| 2026-04-20 17:53 | 49.68287 | 8.72296 | 36090 ft | 464 kts | 193° |
| 2026-04-20 17:54 | 49.65091 | 8.71646 | 36241 ft | 464 kts | 193° |
| 2026-04-20 17:54 | 49.61886 | 8.70997 | 36371 ft | 464 kts | 193° |
| 2026-04-20 17:54 | 49.59771 | 8.70570 | 36468 ft | 463 kts | 193° |
| 2026-04-20 17:54 | 49.56568 | 8.69925 | 36613 ft | 463 kts | 193° |
| 2026-04-20 17:55 | 49.53366 | 8.69283 | 36743 ft | 463 kts | 193° |
| 2026-04-20 17:55 | 49.50164 | 8.68644 | 36876 ft | 464 kts | 193° |
| 2026-04-20 17:55 | 49.46966 | 8.68006 | 37029 ft | 463 kts | 193° |
| 2026-04-20 17:56 | 49.40764 | 8.65832 | 37133 ft | 452 kts | 207° |
| 2026-04-20 17:56 | 49.34897 | 8.62345 | 37133 ft | 451 kts | 207° |
| 2026-04-20 17:57 | 49.29059 | 8.58828 | 37124 ft | 451 kts | 207° |
| 2026-04-20 17:57 | 49.23255 | 8.55335 | 37118 ft | 451 kts | 207° |
| 2026-04-20 17:58 | 49.17412 | 8.51840 | 37082 ft | 450 kts | 207° |
| 2026-04-20 17:58 | 49.11571 | 8.48373 | 37098 ft | 450 kts | 207° |
| 2026-04-20 17:59 | 49.05725 | 8.44912 | 37108 ft | 450 kts | 207° |
| 2026-04-20 17:59 | 48.99886 | 8.41446 | 37116 ft | 450 kts | 207° |
| 2026-04-20 18:00 | 48.94050 | 8.37988 | 37106 ft | 450 kts | 207° |
| 2026-04-20 18:00 | 48.88200 | 8.34546 | 37116 ft | 450 kts | 207° |
| 2026-04-20 18:01 | 48.82354 | 8.31116 | 37127 ft | 450 kts | 207° |
| 2026-04-20 18:01 | 48.76517 | 8.27694 | 37098 ft | 450 kts | 207° |
| 2026-04-20 18:02 | 48.70658 | 8.24269 | 37107 ft | 451 kts | 207° |
| 2026-04-20 18:02 | 48.64808 | 8.20849 | 37113 ft | 451 kts | 207° |
| 2026-04-20 18:03 | 48.58947 | 8.17437 | 37114 ft | 451 kts | 206° |
| 2026-04-20 18:03 | 48.53093 | 8.14042 | 37114 ft | 451 kts | 206° |
| 2026-04-20 18:04 | 48.47269 | 8.10673 | 37104 ft | 451 kts | 206° |
| 2026-04-20 18:04 | 48.41416 | 8.07286 | 37100 ft | 451 kts | 207° |
| 2026-04-20 18:05 | 48.32628 | 8.02221 | 37077 ft | 451 kts | 207° |
| 2026-04-20 18:05 | 48.26768 | 7.98858 | 37079 ft | 451 kts | 207° |
| 2026-04-20 18:06 | 48.20899 | 7.95494 | 37082 ft | 452 kts | 206° |
| 2026-04-20 18:06 | 48.15012 | 7.92128 | 37071 ft | 453 kts | 206° |
| 2026-04-20 18:07 | 48.09121 | 7.88772 | 37081 ft | 453 kts | 206° |
| 2026-04-20 18:07 | 48.03219 | 7.85420 | 37082 ft | 454 kts | 206° |
| 2026-04-20 18:08 | 47.97298 | 7.82075 | 37087 ft | 455 kts | 206° |
| 2026-04-20 18:08 | 47.91388 | 7.78738 | 37060 ft | 454 kts | 206° |
| 2026-04-20 18:09 | 47.85470 | 7.75390 | 37063 ft | 455 kts | 206° |
| 2026-04-20 18:09 | 47.79559 | 7.72057 | 37069 ft | 455 kts | 206° |
| 2026-04-20 18:10 | 47.73639 | 7.68732 | 37050 ft | 455 kts | 206° |
| 2026-04-20 18:10 | 47.67758 | 7.65441 | 37058 ft | 454 kts | 206° |
| 2026-04-20 18:11 | 47.61839 | 7.62138 | 37063 ft | 454 kts | 206° |
| 2026-04-20 18:11 | 47.55928 | 7.58837 | 37064 ft | 454 kts | 206° |
| 2026-04-20 18:12 | 47.50017 | 7.55540 | 37055 ft | 453 kts | 206° |
| 2026-04-20 18:12 | 47.44115 | 7.52268 | 37068 ft | 453 kts | 206° |
| 2026-04-20 18:13 | 47.38218 | 7.49014 | 37059 ft | 452 kts | 206° |
| 2026-04-20 18:13 | 47.32325 | 7.45760 | 37042 ft | 451 kts | 207° |
| 2026-04-20 18:14 | 47.26448 | 7.42518 | 37049 ft | 451 kts | 207° |
| 2026-04-20 18:14 | 47.20590 | 7.39265 | 37048 ft | 447 kts | 210° |
| 2026-04-20 18:15 | 47.15459 | 7.34492 | 37048 ft | 430 kts | 229° |
| 2026-04-20 18:15 | 47.11616 | 7.28029 | 37034 ft | 421 kts | 237° |
| 2026-04-20 18:16 | 47.07969 | 7.21312 | 37047 ft | 421 kts | 237° |
| 2026-04-20 18:16 | 47.04300 | 7.14607 | 37055 ft | 421 kts | 237° |
| 2026-04-20 18:17 | 47.00637 | 7.07900 | 37045 ft | 421 kts | 237° |
| 2026-04-20 18:17 | 46.96975 | 7.01196 | 37040 ft | 421 kts | 237° |
| 2026-04-20 18:18 | 46.93310 | 6.94515 | 37016 ft | 420 kts | 237° |
| 2026-04-20 18:18 | 46.89240 | 6.88311 | 37033 ft | 429 kts | 226° |
| 2026-04-20 18:19 | 46.84607 | 6.82803 | 37038 ft | 429 kts | 226° |
| 2026-04-20 18:19 | 46.79975 | 6.77294 | 37042 ft | 429 kts | 226° |
| 2026-04-20 18:20 | 46.75353 | 6.71788 | 37017 ft | 429 kts | 226° |
| 2026-04-20 18:20 | 46.70727 | 6.66303 | 37030 ft | 428 kts | 226° |
| 2026-04-20 18:21 | 46.66130 | 6.60870 | 37036 ft | 428 kts | 226° |
| 2026-04-20 18:21 | 46.61507 | 6.55420 | 37030 ft | 428 kts | 225° |
| 2026-04-20 18:22 | 46.56877 | 6.49970 | 37040 ft | 428 kts | 225° |
| 2026-04-20 18:22 | 46.52248 | 6.44533 | 37021 ft | 428 kts | 225° |
| 2026-04-20 18:23 | 46.47625 | 6.39105 | 37019 ft | 428 kts | 225° |
| 2026-04-20 18:23 | 46.42992 | 6.33688 | 37018 ft | 428 kts | 225° |
| 2026-04-20 18:24 | 46.38359 | 6.28290 | 36997 ft | 428 kts | 225° |
| 2026-04-20 18:24 | 46.33704 | 6.22878 | 36998 ft | 427 kts | 225° |
| 2026-04-20 18:25 | 46.29064 | 6.17497 | 37011 ft | 427 kts | 225° |
| 2026-04-20 18:25 | 46.23849 | 6.13266 | 37014 ft | 444 kts | 205° |
| 2026-04-20 18:26 | 46.17707 | 6.11489 | 36991 ft | 453 kts | 195° |
| 2026-04-20 18:26 | 46.11463 | 6.10131 | 37002 ft | 454 kts | 195° |
| 2026-04-20 18:27 | 46.05223 | 6.08751 | 37006 ft | 453 kts | 195° |
| 2026-04-20 18:27 | 45.98987 | 6.07357 | 36990 ft | 453 kts | 195° |
| 2026-04-20 18:28 | 45.92756 | 6.05975 | 37000 ft | 453 kts | 195° |
| 2026-04-20 18:28 | 45.86516 | 6.04606 | 37009 ft | 453 kts | 195° |
| 2026-04-20 18:29 | 45.80293 | 6.03232 | 36987 ft | 452 kts | 195° |
| 2026-04-20 18:29 | 45.74066 | 6.01858 | 36998 ft | 452 kts | 195° |
| 2026-04-20 18:30 | 45.67888 | 6.00504 | 36980 ft | 452 kts | 195° |
| 2026-04-20 18:30 | 45.61682 | 5.99139 | 36965 ft | 451 kts | 195° |
| 2026-04-20 18:31 | 45.55467 | 5.97770 | 36978 ft | 451 kts | 195° |
| 2026-04-20 18:31 | 45.49265 | 5.96411 | 36989 ft | 451 kts | 195° |
| 2026-04-20 18:32 | 45.43106 | 5.94845 | 36994 ft | 448 kts | 199° |
| 2026-04-20 18:32 | 45.37048 | 5.92873 | 36965 ft | 446 kts | 200° |
| 2026-04-20 18:33 | 45.31007 | 5.90850 | 36993 ft | 447 kts | 199° |
| 2026-04-20 18:33 | 45.24989 | 5.88937 | 36986 ft | 446 kts | 199° |
| 2026-04-20 18:34 | 45.18916 | 5.87073 | 36973 ft | 447 kts | 199° |
| 2026-04-20 18:34 | 45.12840 | 5.85216 | 36984 ft | 447 kts | 199° |
| 2026-04-20 18:35 | 45.06762 | 5.83339 | 36979 ft | 446 kts | 199° |
| 2026-04-20 18:35 | 45.00694 | 5.81467 | 36958 ft | 447 kts | 199° |
| 2026-04-20 18:36 | 44.94615 | 5.79589 | 36963 ft | 447 kts | 199° |
| 2026-04-20 18:36 | 44.88544 | 5.77722 | 36964 ft | 447 kts | 199° |
| 2026-04-20 18:37 | 44.82474 | 5.75860 | 36948 ft | 447 kts | 199° |
| 2026-04-20 18:37 | 44.76429 | 5.74006 | 36962 ft | 446 kts | 199° |
| 2026-04-20 18:38 | 44.70320 | 5.72139 | 36968 ft | 446 kts | 199° |
| 2026-04-20 18:38 | 44.64295 | 5.70316 | 36960 ft | 446 kts | 199° |
| 2026-04-20 18:39 | 44.58226 | 5.68474 | 36957 ft | 446 kts | 199° |
| 2026-04-20 18:39 | 44.52165 | 5.66630 | 36952 ft | 446 kts | 199° |
| 2026-04-20 18:40 | 44.46100 | 5.64785 | 36930 ft | 446 kts | 199° |
| 2026-04-20 18:40 | 44.40038 | 5.62960 | 36951 ft | 446 kts | 199° |
| 2026-04-20 18:41 | 44.34227 | 5.60296 | 36945 ft | 437 kts | 208° |
| 2026-04-20 18:41 | 44.28568 | 5.57174 | 36936 ft | 437 kts | 208° |
| 2026-04-20 18:42 | 44.23827 | 5.54575 | 36937 ft | 437 kts | 208° |
| 2026-04-20 18:42 | 44.18166 | 5.51493 | 36947 ft | 437 kts | 207° |
| 2026-04-20 18:43 | 44.12507 | 5.48417 | 36948 ft | 437 kts | 207° |
| 2026-04-20 18:43 | 44.06841 | 5.45338 | 36938 ft | 437 kts | 207° |
| 2026-04-20 18:44 | 44.01187 | 5.42264 | 36936 ft | 437 kts | 208° |
| 2026-04-20 18:44 | 43.95528 | 5.39190 | 36940 ft | 437 kts | 207° |
| 2026-04-20 18:45 | 43.89864 | 5.36124 | 36918 ft | 436 kts | 207° |
| 2026-04-20 18:45 | 43.84239 | 5.33084 | 36920 ft | 437 kts | 207° |
| 2026-04-20 18:46 | 43.78536 | 5.30009 | 36934 ft | 437 kts | 207° |
| 2026-04-20 18:46 | 43.72866 | 5.26967 | 36942 ft | 437 kts | 207° |
| 2026-04-20 18:47 | 43.67228 | 5.23949 | 36936 ft | 437 kts | 207° |
| 2026-04-20 18:47 | 43.61554 | 5.20907 | 36948 ft | 437 kts | 207° |
| 2026-04-20 18:48 | 43.55885 | 5.17869 | 36948 ft | 437 kts | 207° |
| 2026-04-20 18:48 | 43.50211 | 5.14843 | 36947 ft | 437 kts | 207° |
| 2026-04-20 18:49 | 43.44532 | 5.11825 | 36951 ft | 437 kts | 207° |
| 2026-04-20 18:49 | 43.38908 | 5.08688 | 36951 ft | 432 kts | 214° |
| 2026-04-20 18:50 | 43.33926 | 5.04242 | 36953 ft | 426 kts | 220° |
| 2026-04-20 18:50 | 43.29035 | 4.99632 | 36930 ft | 426 kts | 220° |
| 2026-04-20 18:51 | 43.24133 | 4.95030 | 36932 ft | 427 kts | 220° |
| 2026-04-20 18:51 | 43.19226 | 4.90431 | 36937 ft | 428 kts | 220° |
| 2026-04-20 18:52 | 43.14316 | 4.85830 | 36945 ft | 428 kts | 220° |
| 2026-04-20 18:52 | 43.09403 | 4.81228 | 36927 ft | 428 kts | 219° |
| 2026-04-20 18:53 | 43.04433 | 4.76782 | 36935 ft | 433 kts | 214° |
| 2026-04-20 18:53 | 42.99160 | 4.72790 | 36945 ft | 433 kts | 214° |
| 2026-04-20 18:54 | 42.93876 | 4.68795 | 36954 ft | 434 kts | 214° |
| 2026-04-20 18:54 | 42.88602 | 4.64796 | 36956 ft | 434 kts | 214° |
| 2026-04-20 18:55 | 42.83313 | 4.60801 | 36951 ft | 435 kts | 214° |
| 2026-04-20 18:55 | 42.78019 | 4.56809 | 36948 ft | 435 kts | 214° |
| 2026-04-20 18:56 | 42.72724 | 4.52831 | 36957 ft | 435 kts | 214° |
| 2026-04-20 18:56 | 42.67430 | 4.48856 | 36963 ft | 435 kts | 214° |
| 2026-04-20 18:57 | 42.62134 | 4.44887 | 36967 ft | 434 kts | 214° |
| 2026-04-20 18:57 | 42.56874 | 4.40959 | 36966 ft | 434 kts | 214° |
| 2026-04-20 18:58 | 42.51579 | 4.37006 | 36949 ft | 434 kts | 214° |
| 2026-04-20 18:58 | 42.46271 | 4.33052 | 36951 ft | 435 kts | 213° |
| 2026-04-20 18:59 | 42.40966 | 4.29107 | 36961 ft | 435 kts | 213° |
| 2026-04-20 18:59 | 42.35650 | 4.25170 | 36962 ft | 435 kts | 213° |
| 2026-04-20 19:00 | 42.30330 | 4.21235 | 36957 ft | 436 kts | 213° |
| 2026-04-20 19:00 | 42.25048 | 4.17321 | 36959 ft | 435 kts | 214° |
| 2026-04-20 19:01 | 42.19738 | 4.13403 | 36979 ft | 435 kts | 213° |
| 2026-04-20 19:01 | 42.14428 | 4.09503 | 36977 ft | 434 kts | 213° |
| 2026-04-20 19:02 | 42.09119 | 4.05609 | 36975 ft | 434 kts | 213° |
| 2026-04-20 19:02 | 42.03816 | 4.01723 | 36977 ft | 434 kts | 213° |
| 2026-04-20 19:03 | 41.98511 | 3.97849 | 36979 ft | 434 kts | 213° |
| 2026-04-20 19:03 | 41.93185 | 3.94137 | 36979 ft | 438 kts | 206° |
| 2026-04-20 19:04 | 41.87173 | 3.92171 | 36966 ft | 445 kts | 194° |
| 2026-04-20 19:04 | 41.81108 | 3.90773 | 36972 ft | 445 kts | 195° |
| 2026-04-20 19:05 | 41.75005 | 3.89359 | 36982 ft | 445 kts | 195° |
| 2026-04-20 19:05 | 41.68900 | 3.87941 | 36976 ft | 445 kts | 195° |
| 2026-04-20 19:06 | 41.62788 | 3.86530 | 36981 ft | 445 kts | 195° |
| 2026-04-20 19:06 | 41.56683 | 3.85137 | 36987 ft | 445 kts | 195° |
| 2026-04-20 19:07 | 41.50573 | 3.83739 | 36989 ft | 445 kts | 195° |
| 2026-04-20 19:07 | 41.44512 | 3.82351 | 36986 ft | 445 kts | 195° |
| 2026-04-20 19:08 | 41.35366 | 3.80264 | 36996 ft | 444 kts | 195° |
| 2026-04-20 19:09 | 41.29278 | 3.78881 | 36999 ft | 444 kts | 195° |
| 2026-04-20 19:09 | 41.23191 | 3.77494 | 36992 ft | 444 kts | 195° |
| 2026-04-20 19:10 | 41.17108 | 3.76110 | 36996 ft | 443 kts | 196° |
| 2026-04-20 19:10 | 41.11319 | 3.73646 | 36996 ft | 435 kts | 206° |
| 2026-04-20 19:11 | 41.05681 | 3.70720 | 36970 ft | 435 kts | 206° |
| 2026-04-20 19:11 | 41.02854 | 3.69263 | 36823 ft | 437 kts | 206° |
| 2026-04-20 19:11 | 41.00011 | 3.67803 | 36559 ft | 438 kts | 206° |
| 2026-04-20 19:11 | 40.97167 | 3.66346 | 36223 ft | 439 kts | 206° |
| 2026-04-20 19:12 | 40.94312 | 3.64880 | 35414 ft | 442 kts | 206° |
| 2026-04-20 19:12 | 40.91476 | 3.63423 | 34608 ft | 444 kts | 206° |
| 2026-04-20 19:12 | 40.88579 | 3.61939 | 33718 ft | 448 kts | 205° |
| 2026-04-20 19:12 | 40.85659 | 3.60444 | 32709 ft | 452 kts | 206° |
| 2026-04-20 19:13 | 40.82724 | 3.58944 | 31773 ft | 453 kts | 206° |
| 2026-04-20 19:13 | 40.79795 | 3.57450 | 31216 ft | 448 kts | 206° |
| 2026-04-20 19:13 | 40.76904 | 3.55978 | 30598 ft | 444 kts | 206° |
| 2026-04-20 19:13 | 40.74036 | 3.54516 | 29977 ft | 440 kts | 206° |
| 2026-04-20 19:14 | 40.71186 | 3.53064 | 29327 ft | 436 kts | 206° |
| 2026-04-20 19:14 | 40.68372 | 3.51635 | 28738 ft | 431 kts | 206° |
| 2026-04-20 19:14 | 40.65590 | 3.50223 | 28167 ft | 426 kts | 206° |
| 2026-04-20 19:14 | 40.62830 | 3.48821 | 27585 ft | 422 kts | 206° |
| 2026-04-20 19:15 | 40.60105 | 3.47435 | 27021 ft | 418 kts | 206° |
| 2026-04-20 19:15 | 40.57401 | 3.46060 | 26451 ft | 415 kts | 206° |
| 2026-04-20 19:15 | 40.54715 | 3.44694 | 25898 ft | 412 kts | 206° |
| 2026-04-20 19:15 | 40.52053 | 3.43343 | 25354 ft | 409 kts | 205° |
| 2026-04-20 19:16 | 40.49407 | 3.42006 | 24814 ft | 406 kts | 205° |
| 2026-04-20 19:16 | 40.46779 | 3.40682 | 24299 ft | 403 kts | 204° |
| 2026-04-20 19:16 | 40.44069 | 3.39705 | 23777 ft | 406 kts | 193° |
| 2026-04-20 19:16 | 40.41283 | 3.39403 | 23217 ft | 409 kts | 182° |
| 2026-04-20 19:17 | 40.38449 | 3.39570 | 22721 ft | 406 kts | 181° |
| 2026-04-20 19:17 | 40.35644 | 3.39741 | 22241 ft | 402 kts | 181° |
| 2026-04-20 19:17 | 40.32865 | 3.39897 | 21759 ft | 398 kts | 181° |
| 2026-04-20 19:17 | 40.30105 | 3.40047 | 21278 ft | 395 kts | 181° |
| 2026-04-20 19:18 | 40.27371 | 3.40200 | 20813 ft | 392 kts | 181° |
| 2026-04-20 19:18 | 40.24647 | 3.40357 | 20318 ft | 390 kts | 181° |
| 2026-04-20 19:18 | 40.21942 | 3.40513 | 19834 ft | 388 kts | 181° |
| 2026-04-20 19:18 | 40.19250 | 3.40662 | 19322 ft | 387 kts | 181° |
| 2026-04-20 19:19 | 40.16566 | 3.40809 | 18833 ft | 385 kts | 181° |
| 2026-04-20 19:19 | 40.13893 | 3.40958 | 18322 ft | 385 kts | 181° |
| 2026-04-20 19:19 | 40.11224 | 3.41107 | 17800 ft | 383 kts | 181° |
| 2026-04-20 19:19 | 40.08606 | 3.41260 | 17655 ft | 370 kts | 181° |
| 2026-04-20 19:20 | 40.06069 | 3.41314 | 17205 ft | 362 kts | 188° |
| 2026-04-20 19:20 | 40.03639 | 3.40532 | 16071 ft | 359 kts | 208° |
| 2026-04-20 19:20 | 40.01557 | 3.38801 | 15107 ft | 353 kts | 220° |
| 2026-04-20 19:20 | 39.99611 | 3.36861 | 14205 ft | 351 kts | 220° |
| 2026-04-20 19:21 | 39.97667 | 3.34946 | 13275 ft | 349 kts | 219° |
| 2026-04-20 19:21 | 39.95735 | 3.33049 | 12323 ft | 346 kts | 219° |
| 2026-04-20 19:21 | 39.93823 | 3.31175 | 11406 ft | 342 kts | 219° |
| 2026-04-20 19:21 | 39.91930 | 3.29323 | 10546 ft | 338 kts | 218° |
| 2026-04-20 19:22 | 39.90085 | 3.27519 | 10014 ft | 325 kts | 218° |
| 2026-04-20 19:22 | 39.88309 | 3.25782 | 9455 ft | 313 kts | 218° |
| 2026-04-20 19:22 | 39.86598 | 3.24111 | 8900 ft | 303 kts | 218° |
| 2026-04-20 19:22 | 39.84937 | 3.22490 | 8334 ft | 294 kts | 218° |
| 2026-04-20 19:23 | 39.83324 | 3.20917 | 7802 ft | 286 kts | 218° |
| 2026-04-20 19:23 | 39.81753 | 3.19381 | 7261 ft | 280 kts | 218° |
| 2026-04-20 19:23 | 39.80205 | 3.17867 | 6732 ft | 277 kts | 218° |
| 2026-04-20 19:23 | 39.78668 | 3.16367 | 6199 ft | 274 kts | 218° |
| 2026-04-20 19:24 | 39.77136 | 3.14872 | 5764 ft | 274 kts | 218° |
| 2026-04-20 19:24 | 39.75643 | 3.13416 | 5544 ft | 272 kts | 217° |
| 2026-04-20 19:24 | 39.74147 | 3.11960 | 5314 ft | 264 kts | 217° |
| 2026-04-20 19:24 | 39.72698 | 3.10552 | 5102 ft | 255 kts | 217° |
| 2026-04-20 19:25 | 39.71319 | 3.09194 | 4993 ft | 243 kts | 221° |
| 2026-04-20 19:25 | 39.70274 | 3.07573 | 4992 ft | 229 kts | 237° |
| 2026-04-20 19:25 | 39.69452 | 3.05808 | 4997 ft | 228 kts | 239° |
| 2026-04-20 19:25 | 39.68645 | 3.04050 | 4808 ft | 225 kts | 239° |
| 2026-04-20 19:26 | 39.67841 | 3.02325 | 4539 ft | 222 kts | 238° |
| 2026-04-20 19:26 | 39.67042 | 3.00620 | 4249 ft | 220 kts | 238° |
| 2026-04-20 19:26 | 39.66256 | 2.98944 | 3959 ft | 213 kts | 238° |
| 2026-04-20 19:26 | 39.65502 | 2.97335 | 3696 ft | 205 kts | 238° |
| 2026-04-20 19:27 | 39.64782 | 2.95800 | 3457 ft | 195 kts | 238° |
| 2026-04-20 19:27 | 39.64093 | 2.94332 | 3183 ft | 186 kts | 238° |
| 2026-04-20 19:27 | 39.63436 | 2.92933 | 2936 ft | 178 kts | 238° |
| 2026-04-20 19:27 | 39.62807 | 2.91595 | 2728 ft | 170 kts | 237° |
| 2026-04-20 19:28 | 39.62203 | 2.90310 | 2505 ft | 164 kts | 237° |
| 2026-04-20 19:28 | 39.61618 | 2.89067 | 2301 ft | 158 kts | 237° |
| 2026-04-20 19:28 | 39.61068 | 2.87896 | 2094 ft | 150 kts | 237° |
| 2026-04-20 19:28 | 39.60535 | 2.86764 | 1888 ft | 145 kts | 237° |
| 2026-04-20 19:29 | 39.60015 | 2.85660 | 1707 ft | 142 kts | 237° |
| 2026-04-20 19:29 | 39.59501 | 2.84572 | 1516 ft | 141 kts | 237° |
| 2026-04-20 19:29 | 39.58990 | 2.83486 | 1325 ft | 141 kts | 237° |
| 2026-04-20 19:29 | 39.58481 | 2.82407 | 1136 ft | 140 kts | 238° |
| 2026-04-20 19:30 | 39.57972 | 2.81325 | 954 ft | 140 kts | 238° |
| 2026-04-20 19:30 | 39.57465 | 2.80250 | 776 ft | 139 kts | 238° |
| 2026-04-20 19:30 | 39.56961 | 2.79181 | 589 ft | 138 kts | 239° |
| 2026-04-20 19:30 | 39.56462 | 2.78123 | 407 ft | 137 kts | 238° |
| 2026-04-20 19:31 | 39.55965 | 2.77071 | 224 ft | 137 kts | 239° |
| 2026-04-20 19:31 | 39.55632 | 2.76357 | 113 ft | 136 kts | 238° |
| 2026-04-20 19:31 | 39.55161 | 2.75360 | 39 ft | 119 kts | 238° |
| 2026-04-20 19:31 | 39.54871 | 2.74741 | 37 ft | 39 kts | 241° |
| 2026-04-20 19:32 | 39.54807 | 2.74438 | 38 ft | 27 kts | 267° |
| 2026-04-20 19:32 | 39.54803 | 2.74273 | 38 ft | 8 kts | 268° |
| 2026-04-20 19:32 | 39.54803 | 2.74270 | 38 ft | 0 kts | 268° |
| 2026-04-20 19:33 | 39.54803 | 2.74255 | 38 ft | 4 kts | 268° |
| 2026-04-20 19:34 | 39.54800 | 2.74203 | 38 ft | 8 kts | 263° |
| 2026-04-20 19:34 | 39.54781 | 2.74115 | 38 ft | 11 kts | 245° |
| 2026-04-20 19:34 | 39.54739 | 2.74020 | 37 ft | 13 kts | 238° |
| 2026-04-20 19:34 | 39.54687 | 2.73912 | 38 ft | 15 kts | 238° |
| 2026-04-20 19:35 | 39.54636 | 2.73803 | 38 ft | 14 kts | 238° |
| 2026-04-20 19:35 | 39.54590 | 2.73707 | 38 ft | 12 kts | 238° |
| 2026-04-20 19:35 | 39.54609 | 2.73624 | 38 ft | 9 kts | 310° |
| 2026-04-20 19:35 | 39.54627 | 2.73559 | 38 ft | 7 kts | 296° |
| 2026-04-20 19:36 | 39.54656 | 2.73521 | 38 ft | 5 kts | 303° |
| 2026-04-20 19:36 | 39.54658 | 2.73477 | 38 ft | 6 kts | 259° |
| 2026-04-20 19:36 | 39.54652 | 2.73436 | 38 ft | 2 kts | 259° |
| 2026-04-20 19:36 | 39.54651 | 2.73428 | 38 ft | 0 kts | 259° |